sensor_id;sensor_type;location;lat;lon;timestamp;temperature;humidity
12264;DHT22;6194;49.010;8.414;2023-07-13T00:01:37;19.50;99.90
12264;DHT22;6194;49.010;8.414;2023-07-13T00:04:04;19.50;99.90
12264;DHT22;6194;49.010;8.414;2023-07-13T00:06:30;19.50;99.90
12264;DHT22;6194;49.010;8.414;2023-07-13T00:08:59;19.50;99.90
12264;DHT22;6194;49.010;8.414;2023-07-13T00:11:25;19.40;99.90
12264;DHT22;6194;49.010;8.414;2023-07-13T00:13:51;19.40;99.90
12264;DHT22;6194;49.010;8.414;2023-07-13T00:16:17;19.30;99.90
12264;DHT22;6194;49.010;8.414;2023-07-13T00:18:44;19.30;99.90
12264;DHT22;6194;49.010;8.414;2023-07-13T00:21:10;19.20;99.90
12264;DHT22;6194;49.010;8.414;2023-07-13T00:23:37;19.20;99.90
12264;DHT22;6194;49.010;8.414;2023-07-13T00:26:05;19.30;99.90
12264;DHT22;6194;49.010;8.414;2023-07-13T00:28:31;19.30;99.90
12264;DHT22;6194;49.010;8.414;2023-07-13T00:30:57;19.20;99.90
12264;DHT22;6194;49.010;8.414;2023-07-13T00:33:22;19.20;99.90
12264;DHT22;6194;49.010;8.414;2023-07-13T00:35:49;19.10;99.90
12264;DHT22;6194;49.010;8.414;2023-07-13T00:38:15;19.10;99.90
12264;DHT22;6194;49.010;8.414;2023-07-13T00:40:41;19.00;99.90
12264;DHT22;6194;49.010;8.414;2023-07-13T00:43:19;19.00;99.90
12264;DHT22;6194;49.010;8.414;2023-07-13T00:48:21;18.90;99.90
12264;DHT22;6194;49.010;8.414;2023-07-13T00:50:50;19.00;99.90
12264;DHT22;6194;49.010;8.414;2023-07-13T00:53:18;19.10;99.90
12264;DHT22;6194;49.010;8.414;2023-07-13T00:55:45;19.00;99.90
12264;DHT22;6194;49.010;8.414;2023-07-13T00:58:11;19.00;99.90
12264;DHT22;6194;49.010;8.414;2023-07-13T01:00:38;19.00;99.90
12264;DHT22;6194;49.010;8.414;2023-07-13T01:03:04;19.00;99.90
12264;DHT22;6194;49.010;8.414;2023-07-13T01:05:32;19.00;99.90
12264;DHT22;6194;49.010;8.414;2023-07-13T01:07:59;19.00;99.90
12264;DHT22;6194;49.010;8.414;2023-07-13T01:10:26;19.00;99.90
12264;DHT22;6194;49.010;8.414;2023-07-13T01:12:51;19.00;99.90
12264;DHT22;6194;49.010;8.414;2023-07-13T01:18:04;18.90;99.90
12264;DHT22;6194;49.010;8.414;2023-07-13T01:20:29;18.90;99.90
12264;DHT22;6194;49.010;8.414;2023-07-13T01:22:55;18.80;99.90
12264;DHT22;6194;49.010;8.414;2023-07-13T01:25:21;18.80;99.90
12264;DHT22;6194;49.010;8.414;2023-07-13T01:27:46;18.90;99.90
12264;DHT22;6194;49.010;8.414;2023-07-13T01:30:12;18.90;99.90
12264;DHT22;6194;49.010;8.414;2023-07-13T01:32:38;19.10;99.90
12264;DHT22;6194;49.010;8.414;2023-07-13T01:35:07;19.20;99.90
12264;DHT22;6194;49.010;8.414;2023-07-13T01:37:33;19.10;99.90
12264;DHT22;6194;49.010;8.414;2023-07-13T01:40:02;19.00;99.90
12264;DHT22;6194;49.010;8.414;2023-07-13T01:42:28;18.90;99.90
12264;DHT22;6194;49.010;8.414;2023-07-13T01:44:53;18.90;99.90
12264;DHT22;6194;49.010;8.414;2023-07-13T01:47:19;18.90;99.90
12264;DHT22;6194;49.010;8.414;2023-07-13T01:49:45;19.00;99.90
12264;DHT22;6194;49.010;8.414;2023-07-13T01:52:12;19.00;99.90
12264;DHT22;6194;49.010;8.414;2023-07-13T01:54:38;19.10;99.90
12264;DHT22;6194;49.010;8.414;2023-07-13T01:57:03;19.30;99.90
12264;DHT22;6194;49.010;8.414;2023-07-13T01:59:29;19.30;99.90
12264;DHT22;6194;49.010;8.414;2023-07-13T02:01:55;19.20;99.90
12264;DHT22;6194;49.010;8.414;2023-07-13T02:04:20;19.00;99.90
12264;DHT22;6194;49.010;8.414;2023-07-13T02:06:46;18.90;99.90
12264;DHT22;6194;49.010;8.414;2023-07-13T02:09:12;18.90;99.90
12264;DHT22;6194;49.010;8.414;2023-07-13T02:11:37;18.80;99.90
12264;DHT22;6194;49.010;8.414;2023-07-13T02:14:03;18.70;99.90
12264;DHT22;6194;49.010;8.414;2023-07-13T02:16:29;18.70;99.90
12264;DHT22;6194;49.010;8.414;2023-07-13T02:18:55;18.60;99.90
12264;DHT22;6194;49.010;8.414;2023-07-13T02:21:22;18.60;99.90
12264;DHT22;6194;49.010;8.414;2023-07-13T02:23:48;18.50;99.90
12264;DHT22;6194;49.010;8.414;2023-07-13T02:26:14;18.50;99.90
12264;DHT22;6194;49.010;8.414;2023-07-13T02:28:40;18.50;99.90
12264;DHT22;6194;49.010;8.414;2023-07-13T02:31:11;18.40;99.90
12264;DHT22;6194;49.010;8.414;2023-07-13T02:33:37;18.40;99.90
12264;DHT22;6194;49.010;8.414;2023-07-13T02:36:03;18.40;99.90
12264;DHT22;6194;49.010;8.414;2023-07-13T02:38:31;18.30;99.90
12264;DHT22;6194;49.010;8.414;2023-07-13T02:40:59;18.30;99.90
12264;DHT22;6194;49.010;8.414;2023-07-13T02:43:25;18.30;99.90
12264;DHT22;6194;49.010;8.414;2023-07-13T02:45:50;18.20;99.90
12264;DHT22;6194;49.010;8.414;2023-07-13T02:48:16;18.20;99.90
12264;DHT22;6194;49.010;8.414;2023-07-13T02:50:43;18.30;99.90
12264;DHT22;6194;49.010;8.414;2023-07-13T02:53:09;18.20;99.90
12264;DHT22;6194;49.010;8.414;2023-07-13T02:55:35;18.10;99.90
12264;DHT22;6194;49.010;8.414;2023-07-13T02:58:00;18.10;99.90
12264;DHT22;6194;49.010;8.414;2023-07-13T03:00:27;18.00;99.90
12264;DHT22;6194;49.010;8.414;2023-07-13T03:02:53;18.00;99.90
12264;DHT22;6194;49.010;8.414;2023-07-13T03:05:21;17.90;99.90
12264;DHT22;6194;49.010;8.414;2023-07-13T03:07:46;17.90;99.90
12264;DHT22;6194;49.010;8.414;2023-07-13T03:10:12;18.10;99.90
12264;DHT22;6194;49.010;8.414;2023-07-13T03:12:37;18.30;99.90
12264;DHT22;6194;49.010;8.414;2023-07-13T03:15:03;18.30;99.90
12264;DHT22;6194;49.010;8.414;2023-07-13T03:17:29;18.20;99.90
12264;DHT22;6194;49.010;8.414;2023-07-13T03:19:55;18.10;99.90
12264;DHT22;6194;49.010;8.414;2023-07-13T03:22:20;18.10;99.90
12264;DHT22;6194;49.010;8.414;2023-07-13T03:24:46;18.20;99.90
12264;DHT22;6194;49.010;8.414;2023-07-13T03:27:11;18.30;99.90
12264;DHT22;6194;49.010;8.414;2023-07-13T03:29:37;18.10;99.90
12264;DHT22;6194;49.010;8.414;2023-07-13T03:32:03;18.20;99.90
12264;DHT22;6194;49.010;8.414;2023-07-13T03:34:30;17.90;99.90
12264;DHT22;6194;49.010;8.414;2023-07-13T03:36:56;17.90;99.90
12264;DHT22;6194;49.010;8.414;2023-07-13T03:39:22;17.90;99.90
12264;DHT22;6194;49.010;8.414;2023-07-13T03:41:48;17.90;99.90
12264;DHT22;6194;49.010;8.414;2023-07-13T03:44:15;18.00;99.90
12264;DHT22;6194;49.010;8.414;2023-07-13T03:46:41;18.20;99.90
12264;DHT22;6194;49.010;8.414;2023-07-13T03:49:06;18.10;99.90
12264;DHT22;6194;49.010;8.414;2023-07-13T03:51:32;18.10;99.90
12264;DHT22;6194;49.010;8.414;2023-07-13T03:53:57;18.00;99.90
12264;DHT22;6194;49.010;8.414;2023-07-13T03:56:23;18.00;99.90
12264;DHT22;6194;49.010;8.414;2023-07-13T03:58:50;17.90;99.90
12264;DHT22;6194;49.010;8.414;2023-07-13T04:01:18;17.90;99.90
12264;DHT22;6194;49.010;8.414;2023-07-13T04:03:44;18.00;99.90
12264;DHT22;6194;49.010;8.414;2023-07-13T04:06:23;18.20;99.90
12264;DHT22;6194;49.010;8.414;2023-07-13T04:08:52;18.50;99.90
12264;DHT22;6194;49.010;8.414;2023-07-13T04:11:19;18.90;99.90
12264;DHT22;6194;49.010;8.414;2023-07-13T04:13:46;19.40;99.90
12264;DHT22;6194;49.010;8.414;2023-07-13T04:16:14;19.80;99.90
12264;DHT22;6194;49.010;8.414;2023-07-13T04:18:39;19.70;99.90
12264;DHT22;6194;49.010;8.414;2023-07-13T04:21:07;19.60;99.90
12264;DHT22;6194;49.010;8.414;2023-07-13T04:23:33;19.40;99.90
12264;DHT22;6194;49.010;8.414;2023-07-13T04:25:58;19.20;99.90
12264;DHT22;6194;49.010;8.414;2023-07-13T04:28:26;19.20;99.90
12264;DHT22;6194;49.010;8.414;2023-07-13T04:30:53;19.10;99.90
12264;DHT22;6194;49.010;8.414;2023-07-13T04:33:19;19.20;99.90
12264;DHT22;6194;49.010;8.414;2023-07-13T04:35:52;19.30;99.90
12264;DHT22;6194;49.010;8.414;2023-07-13T04:38:22;19.40;99.90
12264;DHT22;6194;49.010;8.414;2023-07-13T04:40:48;19.70;99.90
12264;DHT22;6194;49.010;8.414;2023-07-13T04:43:14;20.20;99.90
12264;DHT22;6194;49.010;8.414;2023-07-13T04:45:40;20.40;99.90
12264;DHT22;6194;49.010;8.414;2023-07-13T04:48:06;20.70;99.90
12264;DHT22;6194;49.010;8.414;2023-07-13T04:50:32;21.20;99.90
12264;DHT22;6194;49.010;8.414;2023-07-13T04:52:57;21.80;99.90
12264;DHT22;6194;49.010;8.414;2023-07-13T04:55:24;22.10;99.90
12264;DHT22;6194;49.010;8.414;2023-07-13T04:57:50;22.40;99.90
12264;DHT22;6194;49.010;8.414;2023-07-13T05:00:16;22.50;99.90
12264;DHT22;6194;49.010;8.414;2023-07-13T05:02:44;22.40;99.90
12264;DHT22;6194;49.010;8.414;2023-07-13T05:05:10;22.40;99.90
12264;DHT22;6194;49.010;8.414;2023-07-13T05:07:36;22.50;99.90
12264;DHT22;6194;49.010;8.414;2023-07-13T05:10:02;22.60;99.90
12264;DHT22;6194;49.010;8.414;2023-07-13T05:12:29;22.50;99.90
12264;DHT22;6194;49.010;8.414;2023-07-13T05:14:55;22.40;99.90
12264;DHT22;6194;49.010;8.414;2023-07-13T05:17:20;22.20;99.90
12264;DHT22;6194;49.010;8.414;2023-07-13T05:19:46;22.20;99.90
12264;DHT22;6194;49.010;8.414;2023-07-13T05:22:12;22.20;99.90
12264;DHT22;6194;49.010;8.414;2023-07-13T05:24:38;22.10;99.90
12264;DHT22;6194;49.010;8.414;2023-07-13T05:27:04;22.10;99.90
12264;DHT22;6194;49.010;8.414;2023-07-13T05:29:29;22.20;99.90
12264;DHT22;6194;49.010;8.414;2023-07-13T05:31:55;22.30;99.90
12264;DHT22;6194;49.010;8.414;2023-07-13T05:34:21;22.30;99.90
12264;DHT22;6194;49.010;8.414;2023-07-13T05:36:46;22.50;99.90
12264;DHT22;6194;49.010;8.414;2023-07-13T05:39:12;23.10;99.90
12264;DHT22;6194;49.010;8.414;2023-07-13T05:41:38;24.10;99.90
12264;DHT22;6194;49.010;8.414;2023-07-13T05:44:03;25.30;99.90
12264;DHT22;6194;49.010;8.414;2023-07-13T05:46:29;25.80;99.90
12264;DHT22;6194;49.010;8.414;2023-07-13T05:48:56;25.50;99.90
12264;DHT22;6194;49.010;8.414;2023-07-13T05:51:21;25.30;99.90
12264;DHT22;6194;49.010;8.414;2023-07-13T05:53:47;25.00;99.90
12264;DHT22;6194;49.010;8.414;2023-07-13T05:56:13;25.20;99.90
12264;DHT22;6194;49.010;8.414;2023-07-13T05:58:38;26.10;99.90
12264;DHT22;6194;49.010;8.414;2023-07-13T06:01:10;27.10;99.90
12264;DHT22;6194;49.010;8.414;2023-07-13T06:03:36;28.20;99.90
12264;DHT22;6194;49.010;8.414;2023-07-13T06:06:05;29.40;99.80
12264;DHT22;6194;49.010;8.414;2023-07-13T06:08:31;29.90;98.20
12264;DHT22;6194;49.010;8.414;2023-07-13T06:11:15;30.10;97.20
12264;DHT22;6194;49.010;8.414;2023-07-13T06:13:41;30.40;96.50
12264;DHT22;6194;49.010;8.414;2023-07-13T06:16:07;30.30;96.10
12264;DHT22;6194;49.010;8.414;2023-07-13T06:18:35;29.80;96.20
12264;DHT22;6194;49.010;8.414;2023-07-13T06:21:26;29.90;95.90
12264;DHT22;6194;49.010;8.414;2023-07-13T06:23:52;30.00;95.40
12264;DHT22;6194;49.010;8.414;2023-07-13T06:26:19;30.00;95.30
12264;DHT22;6194;49.010;8.414;2023-07-13T06:28:46;29.90;94.90
12264;DHT22;6194;49.010;8.414;2023-07-13T06:31:13;29.60;94.80
12264;DHT22;6194;49.010;8.414;2023-07-13T06:33:39;28.20;95.80
12264;DHT22;6194;49.010;8.414;2023-07-13T06:36:05;28.30;96.50
12264;DHT22;6194;49.010;8.414;2023-07-13T06:38:33;28.40;96.40
12264;DHT22;6194;49.010;8.414;2023-07-13T06:40:58;29.10;96.30
12264;DHT22;6194;49.010;8.414;2023-07-13T06:43:24;29.80;95.70
12264;DHT22;6194;49.010;8.414;2023-07-13T06:45:55;30.30;95.10
12264;DHT22;6194;49.010;8.414;2023-07-13T06:48:21;30.10;94.80
12264;DHT22;6194;49.010;8.414;2023-07-13T06:50:48;30.00;95.10
12264;DHT22;6194;49.010;8.414;2023-07-13T06:53:15;30.30;94.90
12264;DHT22;6194;49.010;8.414;2023-07-13T06:55:43;30.80;94.30
12264;DHT22;6194;49.010;8.414;2023-07-13T06:58:08;31.50;93.90
12264;DHT22;6194;49.010;8.414;2023-07-13T07:00:34;31.90;93.30
12264;DHT22;6194;49.010;8.414;2023-07-13T07:02:59;32.30;92.90
12264;DHT22;6194;49.010;8.414;2023-07-13T07:05:25;32.20;92.70
12264;DHT22;6194;49.010;8.414;2023-07-13T07:07:51;32.30;92.70
12264;DHT22;6194;49.010;8.414;2023-07-13T07:10:18;32.60;92.10
12264;DHT22;6194;49.010;8.414;2023-07-13T07:12:44;33.10;91.50
12264;DHT22;6194;49.010;8.414;2023-07-13T07:15:09;33.50;90.60
12264;DHT22;6194;49.010;8.414;2023-07-13T07:17:35;34.00;89.50
12264;DHT22;6194;49.010;8.414;2023-07-13T07:20:01;34.20;87.10
12264;DHT22;6194;49.010;8.414;2023-07-13T07:22:27;34.20;86.50
12264;DHT22;6194;49.010;8.414;2023-07-13T07:24:53;34.00;86.40
12264;DHT22;6194;49.010;8.414;2023-07-13T07:27:19;33.40;86.10
12264;DHT22;6194;49.010;8.414;2023-07-13T07:29:45;32.20;87.20
12264;DHT22;6194;49.010;8.414;2023-07-13T07:32:10;31.30;88.80
12264;DHT22;6194;49.010;8.414;2023-07-13T07:34:36;30.90;89.70
12264;DHT22;6194;49.010;8.414;2023-07-13T07:37:02;30.40;90.10
12264;DHT22;6194;49.010;8.414;2023-07-13T07:39:28;29.70;90.70
12264;DHT22;6194;49.010;8.414;2023-07-13T07:41:54;28.90;91.40
12264;DHT22;6194;49.010;8.414;2023-07-13T07:44:19;28.40;90.50
12264;DHT22;6194;49.010;8.414;2023-07-13T07:46:45;28.00;91.30
12264;DHT22;6194;49.010;8.414;2023-07-13T07:49:10;28.90;91.10
12264;DHT22;6194;49.010;8.414;2023-07-13T07:51:36;30.20;88.80
12264;DHT22;6194;49.010;8.414;2023-07-13T07:54:03;31.30;86.80
12264;DHT22;6194;49.010;8.414;2023-07-13T07:56:28;31.70;85.70
12264;DHT22;6194;49.010;8.414;2023-07-13T07:58:54;32.70;84.60
12264;DHT22;6194;49.010;8.414;2023-07-13T08:01:19;32.80;81.60
12264;DHT22;6194;49.010;8.414;2023-07-13T08:03:45;32.70;80.90
12264;DHT22;6194;49.010;8.414;2023-07-13T08:06:11;33.10;80.50
12264;DHT22;6194;49.010;8.414;2023-07-13T08:08:36;33.70;80.50
12264;DHT22;6194;49.010;8.414;2023-07-13T08:11:04;34.50;77.30
12264;DHT22;6194;49.010;8.414;2023-07-13T08:13:29;35.30;76.30
12264;DHT22;6194;49.010;8.414;2023-07-13T08:15:55;35.40;75.60
12264;DHT22;6194;49.010;8.414;2023-07-13T08:18:20;35.70;74.10
12264;DHT22;6194;49.010;8.414;2023-07-13T08:20:46;35.60;70.90
12264;DHT22;6194;49.010;8.414;2023-07-13T08:23:12;35.00;70.50
12264;DHT22;6194;49.010;8.414;2023-07-13T08:25:37;35.00;71.20
12264;DHT22;6194;49.010;8.414;2023-07-13T08:28:04;34.30;70.10
12264;DHT22;6194;49.010;8.414;2023-07-13T08:30:30;33.20;70.80
12264;DHT22;6194;49.010;8.414;2023-07-13T08:32:56;32.30;71.80
12264;DHT22;6194;49.010;8.414;2023-07-13T08:35:22;31.80;71.40
12264;DHT22;6194;49.010;8.414;2023-07-13T08:37:47;30.50;72.70
12264;DHT22;6194;49.010;8.414;2023-07-13T08:40:14;29.30;74.40
12264;DHT22;6194;49.010;8.414;2023-07-13T08:42:44;29.10;77.40
12264;DHT22;6194;49.010;8.414;2023-07-13T08:47:58;28.20;78.90
12264;DHT22;6194;49.010;8.414;2023-07-13T08:50:35;28.60;79.20
12264;DHT22;6194;49.010;8.414;2023-07-13T08:53:05;28.90;78.40
12264;DHT22;6194;49.010;8.414;2023-07-13T08:55:35;29.20;77.70
12264;DHT22;6194;49.010;8.414;2023-07-13T08:58:13;29.90;76.20
12264;DHT22;6194;49.010;8.414;2023-07-13T09:00:52;29.60;76.60
12264;DHT22;6194;49.010;8.414;2023-07-13T09:03:23;29.20;75.00
12264;DHT22;6194;49.010;8.414;2023-07-13T09:05:57;28.10;75.00
12264;DHT22;6194;49.010;8.414;2023-07-13T09:08:54;27.90;74.90
12264;DHT22;6194;49.010;8.414;2023-07-13T09:17:12;28.60;74.40
12264;DHT22;6194;49.010;8.414;2023-07-13T09:19:40;28.10;75.60
12264;DHT22;6194;49.010;8.414;2023-07-13T09:22:12;27.70;76.50
12264;DHT22;6194;49.010;8.414;2023-07-13T09:25:05;28.10;76.30
12264;DHT22;6194;49.010;8.414;2023-07-13T09:27:43;28.00;75.60
12264;DHT22;6194;49.010;8.414;2023-07-13T09:32:47;27.30;78.10
12264;DHT22;6194;49.010;8.414;2023-07-13T09:35:17;26.80;79.10
12264;DHT22;6194;49.010;8.414;2023-07-13T09:37:45;26.90;80.00
12264;DHT22;6194;49.010;8.414;2023-07-13T09:40:22;27.20;78.30
12264;DHT22;6194;49.010;8.414;2023-07-13T09:42:52;27.30;78.20
12264;DHT22;6194;49.010;8.414;2023-07-13T09:45:27;27.00;78.40
12264;DHT22;6194;49.010;8.414;2023-07-13T09:48:00;27.50;77.80
12264;DHT22;6194;49.010;8.414;2023-07-13T09:50:28;27.60;77.70
12264;DHT22;6194;49.010;8.414;2023-07-13T09:52:55;27.40;77.20
12264;DHT22;6194;49.010;8.414;2023-07-13T09:57:57;27.30;76.40
12264;DHT22;6194;49.010;8.414;2023-07-13T10:00:27;27.40;75.70
12264;DHT22;6194;49.010;8.414;2023-07-13T10:03:05;27.50;75.70
12264;DHT22;6194;49.010;8.414;2023-07-13T10:05:39;27.30;76.10
12264;DHT22;6194;49.010;8.414;2023-07-13T10:08:05;26.90;77.10
12264;DHT22;6194;49.010;8.414;2023-07-13T10:10:33;26.90;77.80
12264;DHT22;6194;49.010;8.414;2023-07-13T10:12:58;26.80;77.80
12264;DHT22;6194;49.010;8.414;2023-07-13T10:15:25;26.80;77.80
12264;DHT22;6194;49.010;8.414;2023-07-13T10:17:53;26.50;78.50
12264;DHT22;6194;49.010;8.414;2023-07-13T10:20:20;26.50;78.40
12264;DHT22;6194;49.010;8.414;2023-07-13T10:23:02;26.20;79.10
12264;DHT22;6194;49.010;8.414;2023-07-13T10:25:32;26.30;78.30
12264;DHT22;6194;49.010;8.414;2023-07-13T10:28:29;26.40;80.50
12264;DHT22;6194;49.010;8.414;2023-07-13T10:30:58;26.20;81.70
12264;DHT22;6194;49.010;8.414;2023-07-13T10:33:24;26.10;81.60
12264;DHT22;6194;49.010;8.414;2023-07-13T10:35:54;26.10;82.50
12264;DHT22;6194;49.010;8.414;2023-07-13T10:38:23;26.30;82.30
12264;DHT22;6194;49.010;8.414;2023-07-13T10:41:02;26.60;82.00
12264;DHT22;6194;49.010;8.414;2023-07-13T10:45:59;27.00;81.00
12264;DHT22;6194;49.010;8.414;2023-07-13T10:48:26;27.00;79.10
12264;DHT22;6194;49.010;8.414;2023-07-13T10:50:53;27.10;79.00
12264;DHT22;6194;49.010;8.414;2023-07-13T10:53:33;27.10;78.90
12264;DHT22;6194;49.010;8.414;2023-07-13T10:56:01;27.10;79.40
12264;DHT22;6194;49.010;8.414;2023-07-13T10:58:36;27.20;78.70
12264;DHT22;6194;49.010;8.414;2023-07-13T11:01:14;27.20;78.90
12264;DHT22;6194;49.010;8.414;2023-07-13T11:08:54;26.50;81.10
12264;DHT22;6194;49.010;8.414;2023-07-13T11:16:44;27.00;80.40
12264;DHT22;6194;49.010;8.414;2023-07-13T11:35:35;28.50;77.40
12264;DHT22;6194;49.010;8.414;2023-07-13T11:38:02;28.70;77.70
12264;DHT22;6194;49.010;8.414;2023-07-13T11:40:29;28.30;77.10
12264;DHT22;6194;49.010;8.414;2023-07-13T11:43:02;28.10;77.40
12264;DHT22;6194;49.010;8.414;2023-07-13T11:45:32;27.70;77.70
12264;DHT22;6194;49.010;8.414;2023-07-13T11:47:57;27.40;78.60
12264;DHT22;6194;49.010;8.414;2023-07-13T11:50:25;27.30;78.30
12264;DHT22;6194;49.010;8.414;2023-07-13T11:52:52;27.70;77.40
12264;DHT22;6194;49.010;8.414;2023-07-13T11:55:21;27.70;75.90
12264;DHT22;6194;49.010;8.414;2023-07-13T11:57:57;27.80;76.50
12264;DHT22;6194;49.010;8.414;2023-07-13T12:00:28;27.60;78.10
12264;DHT22;6194;49.010;8.414;2023-07-13T12:02:56;27.30;80.70
12264;DHT22;6194;49.010;8.414;2023-07-13T12:05:22;26.80;80.30
12264;DHT22;6194;49.010;8.414;2023-07-13T12:07:49;26.90;81.20
12264;DHT22;6194;49.010;8.414;2023-07-13T12:10:29;26.90;80.30
12264;DHT22;6194;49.010;8.414;2023-07-13T12:12:56;27.00;79.50
12264;DHT22;6194;49.010;8.414;2023-07-13T12:15:24;27.20;78.70
12264;DHT22;6194;49.010;8.414;2023-07-13T12:17:52;27.40;76.60
12264;DHT22;6194;49.010;8.414;2023-07-13T12:20:28;27.50;76.50
12264;DHT22;6194;49.010;8.414;2023-07-13T12:22:58;27.70;76.60
12264;DHT22;6194;49.010;8.414;2023-07-13T12:25:24;27.70;74.70
12264;DHT22;6194;49.010;8.414;2023-07-13T12:27:51;27.70;74.50
12264;DHT22;6194;49.010;8.414;2023-07-13T12:30:31;27.70;73.70
12264;DHT22;6194;49.010;8.414;2023-07-13T12:33:01;27.60;74.40
12264;DHT22;6194;49.010;8.414;2023-07-13T12:35:30;27.70;73.40
12264;DHT22;6194;49.010;8.414;2023-07-13T12:37:59;27.60;73.20
12264;DHT22;6194;49.010;8.414;2023-07-13T12:40:32;27.80;73.70
12264;DHT22;6194;49.010;8.414;2023-07-13T12:42:58;28.00;73.80
12264;DHT22;6194;49.010;8.414;2023-07-13T12:45:26;28.20;72.20
12264;DHT22;6194;49.010;8.414;2023-07-13T12:47:56;28.40;71.70
12264;DHT22;6194;49.010;8.414;2023-07-13T12:50:30;28.70;71.30
12264;DHT22;6194;49.010;8.414;2023-07-13T12:53:02;28.90;70.60
12264;DHT22;6194;49.010;8.414;2023-07-13T12:55:49;28.70;71.00
12264;DHT22;6194;49.010;8.414;2023-07-13T12:58:40;29.10;69.60
12264;DHT22;6194;49.010;8.414;2023-07-13T13:01:11;28.80;70.10
12264;DHT22;6194;49.010;8.414;2023-07-13T13:03:46;28.60;71.20
12264;DHT22;6194;49.010;8.414;2023-07-13T13:08:52;28.70;72.20
12264;DHT22;6194;49.010;8.414;2023-07-13T13:11:20;28.60;71.10
12264;DHT22;6194;49.010;8.414;2023-07-13T13:13:46;28.70;70.70
12264;DHT22;6194;49.010;8.414;2023-07-13T13:18:43;28.60;70.20
12264;DHT22;6194;49.010;8.414;2023-07-13T13:21:10;28.40;71.00
12264;DHT22;6194;49.010;8.414;2023-07-13T13:23:36;28.60;70.80
12264;DHT22;6194;49.010;8.414;2023-07-13T13:26:02;28.80;70.30
12264;DHT22;6194;49.010;8.414;2023-07-13T13:28:29;28.80;70.60
12264;DHT22;6194;49.010;8.414;2023-07-13T13:30:54;29.00;70.10
12264;DHT22;6194;49.010;8.414;2023-07-13T13:33:21;29.10;68.50
12264;DHT22;6194;49.010;8.414;2023-07-13T13:35:47;29.20;67.70
12264;DHT22;6194;49.010;8.414;2023-07-13T13:38:20;29.20;68.20
12264;DHT22;6194;49.010;8.414;2023-07-13T13:40:46;29.10;66.40
12264;DHT22;6194;49.010;8.414;2023-07-13T13:43:20;28.50;68.60
12264;DHT22;6194;49.010;8.414;2023-07-13T13:45:46;28.10;68.60
12264;DHT22;6194;49.010;8.414;2023-07-13T13:48:20;27.90;69.80
12264;DHT22;6194;49.010;8.414;2023-07-13T13:50:47;27.80;70.90
12264;DHT22;6194;49.010;8.414;2023-07-13T13:53:14;27.60;71.50
12264;DHT22;6194;49.010;8.414;2023-07-13T13:55:40;27.70;71.70
12264;DHT22;6194;49.010;8.414;2023-07-13T13:58:08;27.80;70.50
12264;DHT22;6194;49.010;8.414;2023-07-13T14:00:35;27.70;71.50
12264;DHT22;6194;49.010;8.414;2023-07-13T14:03:00;27.50;71.50
12264;DHT22;6194;49.010;8.414;2023-07-13T14:05:27;27.20;72.50
12264;DHT22;6194;49.010;8.414;2023-07-13T14:07:53;27.20;71.40
12264;DHT22;6194;49.010;8.414;2023-07-13T14:10:20;27.40;71.80
12264;DHT22;6194;49.010;8.414;2023-07-13T14:12:48;27.00;71.90
12264;DHT22;6194;49.010;8.414;2023-07-13T14:15:20;27.00;72.70
12264;DHT22;6194;49.010;8.414;2023-07-13T14:17:46;26.90;72.70
12264;DHT22;6194;49.010;8.414;2023-07-13T14:20:15;27.00;71.70
12264;DHT22;6194;49.010;8.414;2023-07-13T14:22:45;27.30;71.40
12264;DHT22;6194;49.010;8.414;2023-07-13T14:25:12;27.60;71.00
12264;DHT22;6194;49.010;8.414;2023-07-13T14:27:38;27.80;71.50
12264;DHT22;6194;49.010;8.414;2023-07-13T14:30:15;27.80;72.10
12264;DHT22;6194;49.010;8.414;2023-07-13T14:32:41;27.20;70.80
12264;DHT22;6194;49.010;8.414;2023-07-13T14:35:11;27.10;73.20
12264;DHT22;6194;49.010;8.414;2023-07-13T14:37:37;27.20;75.20
12264;DHT22;6194;49.010;8.414;2023-07-13T14:40:11;27.20;73.60
12264;DHT22;6194;49.010;8.414;2023-07-13T14:42:37;27.30;73.10
12264;DHT22;6194;49.010;8.414;2023-07-13T14:45:03;27.30;73.10
12264;DHT22;6194;49.010;8.414;2023-07-13T14:47:28;27.20;73.60
12264;DHT22;6194;49.010;8.414;2023-07-13T14:49:54;26.80;74.40
12264;DHT22;6194;49.010;8.414;2023-07-13T14:52:21;27.00;73.50
12264;DHT22;6194;49.010;8.414;2023-07-13T14:54:48;27.30;74.70
12264;DHT22;6194;49.010;8.414;2023-07-13T14:57:17;27.40;73.70
12264;DHT22;6194;49.010;8.414;2023-07-13T14:59:44;27.20;74.30
12264;DHT22;6194;49.010;8.414;2023-07-13T15:02:35;27.40;73.50
12264;DHT22;6194;49.010;8.414;2023-07-13T15:05:16;27.40;74.20
12264;DHT22;6194;49.010;8.414;2023-07-13T15:07:43;27.30;74.50
12264;DHT22;6194;49.010;8.414;2023-07-13T15:10:20;27.40;74.40
12264;DHT22;6194;49.010;8.414;2023-07-13T15:12:47;27.40;74.60
12264;DHT22;6194;49.010;8.414;2023-07-13T15:15:14;27.40;74.40
12264;DHT22;6194;49.010;8.414;2023-07-13T15:17:44;27.40;73.70
12264;DHT22;6194;49.010;8.414;2023-07-13T15:20:25;27.50;73.20
12264;DHT22;6194;49.010;8.414;2023-07-13T15:22:52;27.70;73.70
12264;DHT22;6194;49.010;8.414;2023-07-13T15:25:23;27.70;74.00
12264;DHT22;6194;49.010;8.414;2023-07-13T15:27:51;27.00;75.50
12264;DHT22;6194;49.010;8.414;2023-07-13T15:30:17;27.10;76.20
12264;DHT22;6194;49.010;8.414;2023-07-13T15:32:43;27.00;75.60
12264;DHT22;6194;49.010;8.414;2023-07-13T15:35:14;27.00;75.90
12264;DHT22;6194;49.010;8.414;2023-07-13T15:37:40;26.70;76.20
12264;DHT22;6194;49.010;8.414;2023-07-13T15:40:06;26.60;77.10
12264;DHT22;6194;49.010;8.414;2023-07-13T15:42:32;26.90;75.30
12264;DHT22;6194;49.010;8.414;2023-07-13T15:44:58;27.00;74.80
12264;DHT22;6194;49.010;8.414;2023-07-13T15:47:23;27.10;74.80
12264;DHT22;6194;49.010;8.414;2023-07-13T15:49:50;27.10;74.50
12264;DHT22;6194;49.010;8.414;2023-07-13T15:52:22;27.00;74.70
12264;DHT22;6194;49.010;8.414;2023-07-13T15:54:49;27.00;75.10
12264;DHT22;6194;49.010;8.414;2023-07-13T15:57:16;26.90;75.40
12264;DHT22;6194;49.010;8.414;2023-07-13T15:59:42;27.10;75.30
12264;DHT22;6194;49.010;8.414;2023-07-13T16:02:19;27.30;74.30
12264;DHT22;6194;49.010;8.414;2023-07-13T16:04:46;27.40;75.10
12264;DHT22;6194;49.010;8.414;2023-07-13T16:07:13;27.70;74.70
12264;DHT22;6194;49.010;8.414;2023-07-13T16:09:42;27.70;74.60
12264;DHT22;6194;49.010;8.414;2023-07-13T16:12:16;27.70;74.20
12264;DHT22;6194;49.010;8.414;2023-07-13T16:14:42;28.00;73.60
12264;DHT22;6194;49.010;8.414;2023-07-13T16:17:12;29.00;71.80
12264;DHT22;6194;49.010;8.414;2023-07-13T16:19:38;29.70;69.80
12264;DHT22;6194;49.010;8.414;2023-07-13T16:22:04;30.70;68.90
12264;DHT22;6194;49.010;8.414;2023-07-13T16:24:31;30.90;68.50
12264;DHT22;6194;49.010;8.414;2023-07-13T16:26:57;30.70;68.30
12264;DHT22;6194;49.010;8.414;2023-07-13T16:29:28;31.40;66.00
12264;DHT22;6194;49.010;8.414;2023-07-13T16:31:59;31.80;65.20
12264;DHT22;6194;49.010;8.414;2023-07-13T16:34:27;32.70;64.40
12264;DHT22;6194;49.010;8.414;2023-07-13T16:36:53;32.40;64.60
12264;DHT22;6194;49.010;8.414;2023-07-13T16:39:19;31.80;65.30
12264;DHT22;6194;49.010;8.414;2023-07-13T16:41:45;32.00;65.00
12264;DHT22;6194;49.010;8.414;2023-07-13T16:44:17;31.90;65.30